Time;durP1;ratioP1;P1;durP2;ratioP2;P2;SDS_P1;SDS_P2;PMS_P1;PMS_P2;Temp;Humidity;BMP_temperature;BMP_pressure;BME280_temperature;BME280_humidity;BME280_pressure;Samples;Min_cycle;Max_cycle;Signal;HPM_P1;HPM_P2
2022/10/01 00:00:07;;;;;;;1.93;1.83;;;11.70;99.90;11.80;100045.00;;;;5036094;28;20261;-68
2022/10/01 00:02:37;;;;;;;2.10;2.00;;;11.80;99.90;11.90;100039.00;;;;5034228;28;20560;-68
2022/10/01 00:05:13;;;;;;;8.03;5.30;;;11.80;99.90;11.70;100044.00;;;;5051136;28;20186;-68
2022/10/01 00:07:46;;;;;;;3.90;3.60;;;11.70;99.90;11.70;99989.00;;;;5035746;28;20278;-68
2022/10/01 00:10:29;;;;;;;2.93;2.73;;;11.70;99.90;11.60;100057.00;;;;5035934;28;20182;-68
2022/10/01 00:13:03;;;;;;;2.50;2.40;;;11.70;99.90;11.50;100063.00;;;;5034152;28;20580;-68
2022/10/01 00:15:36;;;;;;;2.77;2.63;;;11.70;99.90;11.70;100064.00;;;;5050969;28;20280;-68
2022/10/01 00:18:09;;;;;;;2.23;2.13;;;11.70;99.90;11.70;100046.00;;;;5050603;28;20552;-68
2022/10/01 00:20:42;;;;;;;2.80;2.70;;;11.70;99.90;11.80;100061.00;;;;5050127;28;20189;-68
2022/10/01 00:23:13;;;;;;;2.63;2.53;;;11.70;99.90;11.70;100041.00;;;;5034163;28;20193;-70
2022/10/01 00:25:52;;;;;;;2.10;2.00;;;11.70;99.90;11.70;100073.00;;;;5050534;28;20187;-70
2022/10/01 00:28:23;;;;;;;2.07;1.97;;;11.70;99.90;11.80;100085.00;;;;5050163;28;20267;-70
2022/10/01 00:30:55;;;;;;;4.10;3.77;;;11.70;99.90;11.60;100065.00;;;;5035051;28;20189;-70
2022/10/01 00:33:25;;;;;;;2.77;2.67;;;11.70;99.90;11.60;100068.00;;;;5050192;28;20218;-70
2022/10/01 00:35:56;;;;;;;2.97;2.77;;;11.70;99.90;11.80;100067.00;;;;5035186;28;20189;-70
2022/10/01 00:38:26;;;;;;;2.73;2.63;;;11.70;99.90;11.60;100041.00;;;;5050544;28;20174;-70
2022/10/01 00:40:58;;;;;;;3.67;3.37;;;11.70;99.90;11.60;100058.00;;;;5034948;28;20230;-71
2022/10/01 00:43:36;;;;;;;4.73;3.17;;;11.70;99.90;11.50;100051.00;;;;5050152;28;20194;-71
2022/10/01 00:46:32;;;;;;;2.43;2.33;;;11.70;99.90;11.60;100025.00;;;;5033810;28;20209;-72
2022/10/01 00:49:35;;;;;;;2.93;2.73;;;11.70;99.90;11.90;100028.00;;;;5030329;28;20309;-71
2022/10/01 00:52:25;;;;;;;2.07;1.90;;;11.70;99.90;11.90;100030.00;;;;5049809;28;20210;-70
2022/10/01 00:55:27;;;;;;;2.13;1.93;;;11.80;99.90;11.80;100019.00;;;;5033946;28;20226;-70
2022/10/01 00:58:09;;;;;;;2.73;2.57;;;11.80;99.90;11.70;100019.00;;;;5049993;28;20179;-69
2022/10/01 01:00:58;;;;;;;2.30;2.20;;;11.70;99.90;11.70;100001.00;;;;5033158;28;20179;-69
2022/10/01 01:03:30;;;;;;;3.30;3.10;;;11.80;99.90;11.80;100000.00;;;;5032967;28;20207;-69
2022/10/01 01:06:02;;;;;;;2.93;2.83;;;11.70;99.90;11.90;99996.00;;;;5034700;28;20619;-69
2022/10/01 01:08:33;;;;;;;2.23;2.13;;;11.80;99.90;11.90;99978.00;;;;5034324;28;20325;-69
2022/10/01 01:11:24;;;;;;;2.20;2.10;;;11.80;99.90;12.00;99981.00;;;;5050083;28;20183;-70
2022/10/01 01:14:10;;;;;;;1.50;1.50;;;11.80;99.90;11.90;99987.00;;;;5034262;28;20635;-70
2022/10/01 01:17:09;;;;;;;1.40;1.40;;;11.80;99.90;11.90;99980.00;;;;5034191;28;20664;-69
2022/10/01 01:20:22;;;;;;;2.57;2.43;;;11.80;99.90;11.90;99985.00;;;;5049285;28;20178;-70
2022/10/01 01:23:13;;;;;;;1.83;1.73;;;11.90;99.90;11.80;99979.00;;;;5049664;28;20190;-69
2022/10/01 01:26:04;;;;;;;1.90;1.80;;;11.80;99.90;11.90;99933.00;;;;5034266;28;20168;-69
2022/10/01 01:28:59;;;;;;;2.73;2.53;;;11.80;99.90;11.90;99963.00;;;;5049563;28;20175;-70
2022/10/01 01:31:35;;;;;;;1.70;1.70;;;11.90;99.90;12.10;99953.00;;;;5033308;28;20273;-69
2022/10/01 01:34:05;;;;;;;1.30;1.30;;;11.90;99.90;12.00;99968.00;;;;5049212;28;20218;-69
2022/10/01 01:36:36;;;;;;;1.90;1.80;;;11.90;99.90;11.90;99971.00;;;;5049778;28;20178;-69
2022/10/01 01:39:14;;;;;;;1.90;1.80;;;11.90;99.90;12.00;99963.00;;;;5049118;28;20278;-70
2022/10/01 01:41:53;;;;;;;1.80;1.70;;;12.00;99.90;12.00;99966.00;;;;5049235;28;20709;-69
2022/10/01 01:44:29;;;;;;;2.10;2.00;;;12.00;99.90;12.20;99966.00;;;;5048983;28;20231;-69
2022/10/01 01:47:07;;;;;;;1.87;1.77;;;12.10;99.90;12.00;99947.00;;;;5049109;28;20177;-70
2022/10/01 01:49:49;;;;;;;1.90;1.80;;;12.10;99.90;12.10;99946.00;;;;5048818;28;20180;-69
2022/10/01 01:52:21;;;;;;;1.90;1.80;;;12.10;99.90;12.20;99948.00;;;;5032195;28;20210;-69
2022/10/01 01:54:54;;;;;;;2.23;2.13;;;12.10;99.90;12.10;99939.00;;;;5048742;28;20229;-69
2022/10/01 01:57:26;;;;;;;1.63;1.63;;;12.10;99.90;12.20;99940.00;;;;5048619;28;20670;-69
2022/10/01 02:00:00;;;;;;;1.60;1.60;;;12.10;99.90;12.20;99925.00;;;;5049101;28;20194;-69
2022/10/01 02:02:36;;;;;;;1.73;1.73;;;12.10;99.90;12.20;99932.00;;;;5048131;28;20189;-69
2022/10/01 02:05:17;;;;;;;2.53;2.33;;;12.20;99.90;12.20;99938.00;;;;5047995;28;20201;-69
2022/10/01 02:08:00;;;;;;;2.10;2.00;;;12.20;99.90;12.30;99932.00;;;;5048646;28;20182;-68
2022/10/01 02:11:07;;;;;;;1.90;1.90;;;12.20;99.90;12.40;99934.00;;;;5048456;28;20261;-69
2022/10/01 02:13:58;;;;;;;1.67;1.67;;;12.30;99.90;12.40;99930.00;;;;5048988;28;20181;-69
2022/10/01 02:16:49;;;;;;;1.40;1.40;;;12.30;99.90;12.70;99887.00;;;;5033108;28;20628;-69
2022/10/01 02:19:36;;;;;;;1.50;1.50;;;12.40;99.90;12.50;99931.00;;;;5048444;28;20177;-69
2022/10/01 02:22:22;;;;;;;1.70;1.70;;;12.50;99.90;13.00;99939.00;;;;5031596;28;20222;-69
2022/10/01 02:25:00;;;;;;;1.90;1.90;;;12.60;99.90;12.90;99935.00;;;;5048350;28;20193;-69
2022/10/01 02:27:59;;;;;;;2.13;2.03;;;12.70;99.90;12.80;99938.00;;;;5048549;28;20223;-69
2022/10/01 02:30:35;;;;;;;1.60;1.60;;;12.70;99.90;13.10;99933.00;;;;5033057;28;20251;-69
2022/10/01 02:33:12;;;;;;;1.87;1.87;;;12.80;99.90;13.10;99933.00;;;;5048348;28;20220;-69
2022/10/01 02:35:44;;;;;;;2.40;2.30;;;12.80;99.90;12.90;99923.00;;;;5048533;28;20194;-70
2022/10/01 02:38:26;;;;;;;1.70;1.70;;;12.80;99.90;13.00;99927.00;;;;5033191;28;20543;-70
2022/10/01 02:41:03;;;;;;;2.03;1.93;;;12.80;99.90;12.70;99932.00;;;;5048020;28;20231;-69
2022/10/01 02:43:50;;;;;;;1.20;1.20;;;12.70;99.90;12.80;99926.00;;;;5031816;28;20189;-69
2022/10/01 02:46:45;;;;;;;1.13;1.13;;;12.70;99.90;12.80;99928.00;;;;5047902;28;20177;-69
2022/10/01 02:49:17;;;;;;;1.40;1.40;;;12.70;99.90;12.70;99922.00;;;;5048701;28;20554;-69
2022/10/01 02:52:42;;;;;;;1.20;1.20;;;12.70;99.90;12.90;99922.00;;;;5048308;28;20192;-68
2022/10/01 02:55:28;;;;;;;1.20;1.20;;;12.70;99.90;13.10;99932.00;;;;5030828;28;20227;-69
2022/10/01 02:58:09;;;;;;;1.30;1.30;;;12.90;99.90;13.20;99921.00;;;;5014659;28;20187;-69
2022/10/01 03:00:43;;;;;;;1.30;1.30;;;12.90;99.90;12.90;99929.00;;;;5028227;28;20283;-68
2022/10/01 03:03:17;;;;;;;1.40;1.40;;;12.90;99.90;13.50;99927.00;;;;5032731;28;20267;-68
2022/10/01 03:05:49;;;;;;;1.40;1.40;;;13.00;99.90;13.20;99923.00;;;;5048403;28;20593;-68
2022/10/01 03:08:40;;;;;;;1.40;1.40;;;13.00;99.90;13.10;99917.00;;;;5047797;28;20604;-69
2022/10/01 03:11:09;;;;;;;1.50;1.50;;;12.90;99.90;13.00;99912.00;;;;5047732;28;20188;-69
2022/10/01 03:13:44;;;;;;;1.20;1.20;;;12.90;99.90;12.90;99905.00;;;;5031555;28;20183;-70
2022/10/01 03:16:20;;;;;;;1.37;1.37;;;12.90;99.90;13.00;99871.00;;;;5032790;28;20186;-69
2022/10/01 03:19:01;;;;;;;1.60;1.50;;;12.90;99.90;12.80;99879.00;;;;5034145;28;20631;-68
2022/10/01 03:21:38;;;;;;;1.20;1.20;;;12.90;99.90;13.10;99908.00;;;;5035189;28;20189;-69
2022/10/01 03:24:13;;;;;;;1.40;1.40;;;12.90;99.90;13.10;99887.00;;;;5051668;28;20180;-68
2022/10/01 03:26:49;;;;;;;1.57;1.57;;;12.90;99.90;13.10;99896.00;;;;5036420;28;20192;-69
2022/10/01 03:29:29;;;;;;;1.13;1.13;;;12.90;99.90;13.10;99911.00;;;;5036290;28;20188;-69
2022/10/01 03:31:55;;;;;;;1.43;1.43;;;13.00;99.90;13.20;99911.00;;;;5051412;28;20217;-68
2022/10/01 03:34:31;;;;;;;1.20;1.20;;;13.00;99.90;13.10;99910.00;;;;5035243;28;20190;-69
2022/10/01 03:36:59;;;;;;;1.10;1.10;;;13.00;99.90;13.30;99884.00;;;;5036273;28;20196;-68
2022/10/01 03:39:39;;;;;;;1.50;1.50;;;13.00;99.90;13.30;99917.00;;;;5035239;28;20296;-69
2022/10/01 03:42:08;;;;;;;1.73;1.63;;;13.10;99.90;13.40;99899.00;;;;5051535;28;20310;-69
2022/10/01 03:44:48;;;;;;;1.27;1.27;;;13.20;99.90;13.80;99913.00;;;;5035798;28;20204;-69
2022/10/01 03:47:25;;;;;;;1.40;1.40;;;13.30;99.90;13.70;99904.00;;;;5035078;28;20189;-69
2022/10/01 03:50:01;;;;;;;1.90;1.80;;;13.40;99.90;13.70;99917.00;;;;5036076;28;20661;-68
2022/10/01 03:52:43;;;;;;;1.20;1.20;;;13.40;99.90;13.50;99924.00;;;;5035866;28;20208;-68
2022/10/01 03:55:18;;;;;;;1.40;1.40;;;13.40;99.90;14.10;99925.00;;;;5035892;28;20185;-68
2022/10/01 03:57:46;;;;;;;1.47;1.43;;;13.50;99.90;14.40;99884.00;;;;5035386;28;20658;-69
2022/10/01 04:00:21;;;;;;;1.27;1.27;;;13.70;99.90;13.80;99925.00;;;;5051384;28;20180;-68
2022/10/01 04:02:54;;;;;;;1.20;1.17;;;13.60;99.90;13.60;99931.00;;;;5051043;28;20196;-68
2022/10/01 04:05:28;;;;;;;0.90;0.90;;;13.60;99.90;13.90;99924.00;;;;5050613;28;20327;-69
2022/10/01 04:07:59;;;;;;;1.00;1.00;;;13.60;99.90;14.10;99926.00;;;;5051263;28;20177;-68
2022/10/01 04:10:30;;;;;;;1.10;1.10;;;13.80;99.90;14.00;99931.00;;;;5050550;28;20667;-68
2022/10/01 04:13:17;;;;;;;1.60;1.50;;;13.80;99.90;14.10;99915.00;;;;5035241;28;20208;-68
2022/10/01 04:15:47;;;;;;;1.50;1.50;;;13.80;99.90;14.10;99917.00;;;;5049754;28;20223;-68
2022/10/01 04:18:21;;;;;;;1.10;1.10;;;13.80;99.90;14.40;99934.00;;;;5051327;28;20599;-68
2022/10/01 04:20:48;;;;;;;1.20;1.20;;;13.90;99.90;14.20;99927.00;;;;5050969;28;20192;-68
2022/10/01 04:23:14;;;;;;;1.13;1.13;;;13.90;99.90;14.20;99945.00;;;;5050914;28;20182;-68
2022/10/01 04:25:40;;;;;;;0.90;0.90;;;13.90;99.90;14.20;99919.00;;;;5035426;28;20176;-69
2022/10/01 04:28:10;;;;;;;2.87;1.93;;;13.90;99.90;14.20;99952.00;;;;5033626;28;20186;-68
2022/10/01 04:30:41;;;;;;;1.17;1.17;;;14.00;99.90;14.10;99962.00;;;;5050531;28;20179;-68
2022/10/01 04:33:15;;;;;;;1.07;1.07;;;13.90;99.90;14.40;99915.00;;;;5033868;28;20607;-68
2022/10/01 04:35:42;;;;;;;1.10;1.10;;;14.00;99.90;14.70;99968.00;;;;5050752;28;20533;-69
2022/10/01 04:38:17;;;;;;;1.63;1.53;;;14.20;99.90;14.10;99958.00;;;;5033622;28;20671;-68
2022/10/01 04:40:51;;;;;;;1.37;1.37;;;14.10;99.90;14.50;99960.00;;;;5033615;28;20189;-68
2022/10/01 04:43:17;;;;;;;1.47;1.47;;;14.10;99.90;14.90;99972.00;;;;5035015;28;20215;-69
2022/10/01 04:45:43;;;;;;;1.40;1.40;;;14.20;99.90;14.30;99977.00;;;;5050639;28;20624;-69
2022/10/01 04:48:09;;;;;;;1.30;1.30;;;14.20;99.90;14.40;99983.00;;;;5034750;28;20621;-69
2022/10/01 04:50:35;;;;;;;2.90;2.77;;;14.20;99.90;14.60;99970.00;;;;5034947;28;20643;-68
2022/10/01 04:53:01;;;;;;;1.50;1.50;;;14.20;99.90;14.50;99938.00;;;;5034854;28;20656;-69
2022/10/01 04:55:27;;;;;;;1.73;1.73;;;14.30;99.90;14.50;99974.00;;;;5049896;28;20182;-68
2022/10/01 04:57:53;;;;;;;1.77;1.77;;;14.30;99.90;14.80;99980.00;;;;5034699;28;20183;-68
2022/10/01 05:00:25;;;;;;;2.00;2.00;;;14.40;99.90;15.30;99977.00;;;;5034601;28;20676;-68
2022/10/01 05:02:55;;;;;;;2.10;2.10;;;14.50;99.90;14.50;99976.00;;;;5049751;28;20273;-68
2022/10/01 05:05:27;;;;;;;1.80;1.80;;;14.40;99.90;14.80;99998.00;;;;5049696;28;20185;-69
2022/10/01 05:07:54;;;;;;;1.83;1.83;;;14.40;99.90;14.70;99995.00;;;;5049810;28;20546;-68
2022/10/01 05:10:24;;;;;;;1.70;1.70;;;14.40;99.90;15.00;99960.00;;;;5033111;28;20181;-69
2022/10/01 05:12:52;;;;;;;2.00;2.00;;;14.40;99.90;15.30;99991.00;;;;5050152;28;20206;-69
2022/10/01 05:15:27;;;;;;;2.10;2.10;;;14.60;99.90;14.70;99996.00;;;;5034339;28;20166;-69
2022/10/01 05:18:01;;;;;;;1.50;1.50;;;14.50;99.90;14.30;100010.00;;;;5049792;28;20193;-68
2022/10/01 05:20:33;;;;;;;1.50;1.50;;;14.30;99.90;14.50;100005.00;;;;5049079;28;20183;-69
2022/10/01 05:23:01;;;;;;;1.73;1.73;;;14.20;99.90;14.80;100012.00;;;;5034465;28;20587;-69
2022/10/01 05:25:32;;;;;;;1.60;1.60;;;14.30;99.90;14.30;100000.00;;;;5033921;28;20370;-69
2022/10/01 05:28:05;;;;;;;1.50;1.50;;;14.20;99.90;14.70;100003.00;;;;5049538;28;20194;-69
2022/10/01 05:31:20;;;;;;;1.50;1.50;;;14.20;99.90;14.20;100042.00;;;;5034022;28;20179;-69
2022/10/01 05:33:51;;;;;;;1.37;1.37;;;14.20;99.90;14.70;100035.00;;;;5034448;28;20238;-68
2022/10/01 05:36:17;;;;;;;1.60;1.60;;;14.20;99.90;14.90;100048.00;;;;5049307;28;20671;-68
2022/10/01 05:38:47;;;;;;;2.40;2.30;;;14.30;99.90;15.20;100051.00;;;;5049316;28;20591;-68
2022/10/01 05:41:28;;;;;;;1.80;1.80;;;14.50;99.90;14.60;100051.00;;;;5033163;28;20192;-69
2022/10/01 05:44:05;;;;;;;1.70;1.70;;;14.30;99.90;14.90;100051.00;;;;5033858;28;20680;-69
2022/10/01 05:46:34;;;;;;;1.80;1.80;;;14.30;99.90;14.80;100045.00;;;;5029398;28;20187;-70
2022/10/01 05:49:00;;;;;;;1.87;1.87;;;14.30;99.90;14.70;100054.00;;;;5012992;28;20178;-69
2022/10/01 05:51:29;;;;;;;2.10;2.10;;;14.30;99.90;15.00;100056.00;;;;5012707;28;20182;-70
2022/10/01 05:54:03;;;;;;;2.40;2.40;;;14.40;99.90;15.50;100080.00;;;;4996018;28;20193;-70
2022/10/01 05:56:29;;;;;;;2.60;2.50;;;14.50;99.90;15.30;100060.00;;;;5012947;28;20167;-70
2022/10/01 05:58:55;;;;;;;2.20;2.20;;;14.70;99.90;14.60;100058.00;;;;5012845;28;20175;-69
2022/10/01 06:01:33;;;;;;;2.17;2.17;;;14.40;99.90;14.70;100068.00;;;;4996494;28;20191;-70
2022/10/01 06:04:07;;;;;;;2.00;2.00;;;14.40;99.90;14.40;100066.00;;;;5014119;28;20207;-70
2022/10/01 06:06:45;;;;;;;1.67;1.67;;;14.30;99.90;14.70;100063.00;;;;5012717;28;20186;-70
2022/10/01 06:09:20;;;;;;;2.00;2.00;;;14.20;99.90;15.20;100069.00;;;;5013661;28;20182;-70
2022/10/01 06:11:54;;;;;;;2.30;2.30;;;14.40;99.90;15.10;100097.00;;;;5012413;28;20198;-70
2022/10/01 06:14:23;;;;;;;2.53;2.50;;;14.50;99.90;15.60;100092.00;;;;5012794;28;20174;-70
2022/10/01 06:17:00;;;;;;;3.00;2.90;;;14.70;99.90;15.60;100087.00;;;;5012394;28;20585;-70
2022/10/01 06:19:29;;;;;;;3.20;3.10;;;14.70;99.90;14.90;100088.00;;;;5014105;28;20187;-70
2022/10/01 06:22:01;;;;;;;2.20;2.20;;;14.60;99.90;15.00;100093.00;;;;5012567;28;20175;-69
2022/10/01 06:24:36;;;;;;;2.80;2.70;;;14.50;99.90;15.50;100046.00;;;;5013729;28;20242;-70
2022/10/01 06:27:12;;;;;;;2.67;2.57;;;14.60;99.90;15.20;100099.00;;;;5013236;28;20179;-69
2022/10/01 06:29:46;;;;;;;2.77;2.67;;;14.70;99.90;15.50;100101.00;;;;4996629;28;20198;-69
2022/10/01 06:32:35;;;;;;;2.70;2.60;;;14.70;99.90;15.80;100108.00;;;;5012052;28;20215;-69
2022/10/01 06:35:16;;;;;;;3.33;3.23;;;14.90;99.90;14.80;100114.00;;;;5008162;28;20193;-69
2022/10/01 06:37:50;;;;;;;3.90;3.60;;;14.70;99.90;14.70;100110.00;;;;5026713;28;20527;-69
2022/10/01 06:40:39;;;;;;;1.60;1.60;;;14.50;99.90;14.60;100108.00;;;;5012412;28;20202;-69
2022/10/01 06:43:17;;;;;;;2.17;2.07;;;14.40;99.90;14.60;100076.00;;;;5012338;28;20183;-69
2022/10/01 06:46:04;;;;;;;4.53;2.47;;;14.40;99.90;14.60;100129.00;;;;4995936;28;20194;-70
2022/10/01 06:48:39;;;;;;;2.00;1.93;;;14.50;99.90;14.80;100122.00;;;;5044750;28;20218;-70
2022/10/01 06:52:47;;;;;;;3.20;2.97;;;14.60;99.90;14.50;100131.00;;;;5013398;28;20185;-70
2022/10/01 06:54:13;;;;;;;2.53;2.43;;;14.50;99.90;14.60;100138.00;;;;5014167;28;20253;-70
2022/10/01 06:56:45;;;;;;;5.80;2.47;;;14.50;99.90;14.70;100135.00;;;;5016205;28;20232;-69
2022/10/01 06:59:13;;;;;;;2.27;2.17;;;14.50;99.90;14.50;100135.00;;;;5015774;28;20177;-69
2022/10/01 07:01:42;;;;;;;2.67;2.23;;;14.50;99.90;14.80;100109.00;;;;5015770;28;20643;-69
2022/10/01 07:04:33;;;;;;;5.90;2.47;;;14.70;99.90;15.50;100152.00;;;;5015973;28;20208;-69
2022/10/01 07:07:10;;;;;;;2.60;2.40;;;15.00;99.90;15.20;100152.00;;;;5015751;28;20655;-69
2022/10/01 07:09:39;;;;;;;3.23;3.03;;;15.00;99.90;15.30;100160.00;;;;5017139;28;20233;-69
2022/10/01 07:12:07;;;;;;;1.90;1.90;;;15.10;99.90;15.30;100161.00;;;;5015500;28;20705;-69
2022/10/01 07:14:33;;;;;;;8.37;3.63;;;15.10;99.90;15.50;100171.00;;;;5016924;28;20635;-69
2022/10/01 07:17:04;;;;;;;3.00;2.80;;;15.20;99.90;15.10;100172.00;;;;5017162;28;20315;-69
2022/10/01 07:19:30;;;;;;;4.93;3.57;;;15.10;99.90;15.70;100180.00;;;;5025018;28;20183;-69
2022/10/01 07:21:56;;;;;;;1.70;1.70;;;15.40;99.90;15.40;100178.00;;;;5024249;28;20204;-69
2022/10/01 07:24:22;;;;;;;6.30;3.10;;;15.30;99.90;15.70;100168.00;;;;5016903;28;20264;-69
2022/10/01 07:26:49;;;;;;;1.50;1.50;;;15.40;99.90;15.80;100140.00;;;;5016925;28;20173;-69
2022/10/01 07:29:16;;;;;;;2.47;2.37;;;15.60;99.90;16.20;100180.00;;;;5016720;28;20224;-69
2022/10/01 07:31:42;;;;;;;2.83;2.67;;;16.00;99.90;16.00;100184.00;;;;5016244;28;20217;-70
2022/10/01 07:34:08;;;;;;;1.77;1.77;;;15.80;99.90;16.10;100149.00;;;;5015555;28;20185;-69
2022/10/01 07:36:41;;;;;;;2.57;2.47;;;15.80;99.90;15.80;100183.00;;;;5016233;28;20168;-69
2022/10/01 07:39:07;;;;;;;1.70;1.70;;;15.70;99.90;16.40;100184.00;;;;5016160;28;20192;-70
2022/10/01 07:41:33;;;;;;;4.43;4.03;;;15.90;99.90;16.30;100191.00;;;;5051460;28;20263;-70
2022/10/01 07:44:03;;;;;;;5.47;2.77;;;16.10;99.90;16.60;100181.00;;;;5051404;28;20208;-70
2022/10/01 07:46:29;;;;;;;1.47;1.40;;;16.30;99.90;16.90;100151.00;;;;5051779;28;20193;-71
2022/10/01 07:49:32;;;;;;;0.80;0.80;;;16.50;99.90;16.90;100194.00;;;;5035831;28;20644;-70
2022/10/01 07:52:39;;;;;;;1.80;1.70;;;16.50;99.90;17.20;100193.00;;;;5036094;28;20232;-70
2022/10/01 07:55:14;;;;;;;2.43;2.23;;;16.70;99.90;17.40;100197.00;;;;5022774;28;20535;-70
2022/10/01 07:57:40;;;;;;;2.50;2.30;;;17.20;99.90;16.90;100170.00;;;;5034761;28;20682;-71
2022/10/01 08:00:07;;;;;;;8.10;3.47;;;17.00;99.90;17.40;100202.00;;;;5020930;28;20219;-69
2022/10/01 08:02:54;;;;;;;6.57;1.50;;;17.10;99.90;17.00;100214.00;;;;5033350;28;20662;-70
2022/10/01 08:05:58;;;;;;;6.00;2.70;;;17.00;99.90;17.20;100215.00;;;;5017312;28;20233;-71
2022/10/01 08:08:24;;;;;;;9.57;2.77;;;17.10;99.90;16.60;100213.00;;;;5034753;28;20201;-69
2022/10/01 08:11:09;;;;;;;1.67;1.57;;;16.60;99.90;17.20;100211.00;;;;5034509;28;20642;-71
2022/10/01 08:13:38;;;;;;;0.80;0.80;;;16.90;99.90;17.90;100224.00;;;;5034597;28;20210;-70
2022/10/01 08:16:11;;;;;;;2.60;1.47;;;17.30;99.90;17.00;100224.00;;;;5034535;28;20218;-69
2022/10/01 08:18:39;;;;;;;2.50;2.07;;;17.10;99.90;17.00;100233.00;;;;5033691;28;20286;-70
2022/10/01 08:21:06;;;;;;;3.70;1.53;;;17.10;99.90;17.00;100236.00;;;;5034245;28;20579;-69
2022/10/01 08:23:35;;;;;;;2.10;1.20;;;17.00;99.90;17.70;100229.00;;;;5034521;28;20546;-70
2022/10/01 08:26:06;;;;;;;4.90;1.73;;;17.30;99.90;17.30;100230.00;;;;5035407;28;20182;-70
2022/10/01 08:28:34;;;;;;;2.37;1.67;;;17.20;99.90;17.50;100235.00;;;;5016354;28;20198;-70
2022/10/01 08:31:08;;;;;;;5.13;1.53;;;17.30;99.90;17.40;100239.00;;;;5038785;28;20192;-70
2022/10/01 08:33:36;;;;;;;10.90;2.33;;;17.30;99.90;17.40;100231.00;;;;5033710;28;20206;-69
2022/10/01 08:36:12;;;;;;;5.83;2.00;;;17.30;99.90;17.40;100254.00;;;;5017843;28;20641;-71
2022/10/01 08:38:39;;;;;;;3.40;3.10;;;17.30;99.90;16.80;100264.00;;;;5034217;28;20246;-70
2022/10/01 08:41:57;;;;;;;0.40;0.40;;;17.00;99.90;17.50;100256.00;;;;5034160;28;20174;-69
2022/10/01 08:44:47;;;;;;;5.90;2.53;;;17.10;99.90;17.10;100235.00;;;;5033033;28;20202;-70
2022/10/01 08:47:32;;;;;;;0.57;0.57;;;17.10;99.90;18.00;100266.00;;;;5013298;28;20192;-70
2022/10/01 08:50:33;;;;;;;0.73;0.73;;;17.40;99.90;18.00;100277.00;;;;5030301;28;20183;-69
2022/10/01 08:53:12;;;;;;;1.43;1.13;;;17.60;99.90;18.20;100278.00;;;;5030181;28;20554;-69
2022/10/01 08:55:59;;;;;;;2.10;1.30;;;18.00;99.90;18.80;100281.00;;;;5014217;28;20199;-70
2022/10/01 08:58:40;;;;;;;0.60;0.60;;;18.30;99.90;18.30;100243.00;;;;4996887;28;20188;-69
2022/10/01 09:01:09;;;;;;;5.83;2.87;;;18.00;99.90;17.60;100275.00;;;;5013872;28;20219;-70
2022/10/01 09:04:05;;;;;;;1.03;0.93;;;17.70;99.90;18.30;100290.00;;;;5013881;28;20197;-70
2022/10/01 09:06:39;;;;;;;0.40;0.40;;;17.90;99.90;18.20;100300.00;;;;5013549;28;20190;-68
2022/10/01 09:09:36;;;;;;;2.57;1.53;;;18.00;99.90;19.10;100299.00;;;;5030280;28;20168;-68
2022/10/01 09:12:34;;;;;;;0.77;0.77;;;18.40;99.90;18.70;100305.00;;;;5014765;28;20242;-70
2022/10/01 09:15:26;;;;;;;0.30;0.30;;;18.30;99.90;19.20;100283.00;;;;5014572;28;20536;-70
2022/10/01 09:18:33;;;;;;;0.40;0.40;;;18.50;99.90;18.40;100319.00;;;;5029468;28;20579;-70
2022/10/01 09:20:59;;;;;;;4.93;1.87;;;18.10;99.90;18.50;100319.00;;;;5014519;28;20184;-74
2022/10/01 09:23:27;;;;;;;0.50;0.50;;;18.00;99.90;18.70;100323.00;;;;5029767;28;20600;-70
2022/10/01 09:25:53;;;;;;;2.13;1.37;;;18.10;99.90;17.90;100324.00;;;;5030168;28;20605;-70
2022/10/01 09:28:43;;;;;;;0.30;0.30;;;17.90;99.90;18.60;100335.00;;;;5029830;28;20285;-70
2022/10/01 09:31:22;;;;;;;0.27;0.27;;;17.90;99.90;18.40;100340.00;;;;4998510;28;20206;-69
2022/10/01 09:34:31;;;;;;;3.10;0.77;;;17.80;99.90;18.00;100346.00;;;;5029993;28;20176;-70
2022/10/01 09:37:24;;;;;;;0.30;0.30;;;17.90;99.90;18.10;100316.00;;;;5017079;28;20669;-69
2022/10/01 09:40:15;;;;;;;5.07;1.57;;;17.70;99.90;17.90;100353.00;;;;5029425;28;20234;-69
2022/10/01 09:42:42;;;;;;;0.50;0.50;;;17.60;99.90;17.80;100361.00;;;;5029359;28;20183;-69
2022/10/01 09:45:13;;;;;;;2.00;0.93;;;17.40;99.90;18.10;100371.00;;;;5029219;28;20178;-69
2022/10/01 09:47:42;;;;;;;1.27;1.07;;;17.50;99.90;18.00;100375.00;;;;5013241;28;20250;-69
2022/10/01 09:50:15;;;;;;;1.90;0.53;;;17.50;99.90;18.30;100380.00;;;;5029269;28;20520;-71
2022/10/01 09:52:45;;;;;;;0.30;0.30;;;17.70;99.90;18.20;100365.00;;;;5029256;28;20667;-72
2022/10/01 09:55:35;;;;;;;0.77;0.60;;;17.60;99.90;18.50;100388.00;;;;5012373;28;20272;-71
2022/10/01 09:58:46;;;;;;;0.43;0.43;;;17.80;99.90;18.40;100392.00;;;;5014113;28;20182;-72
2022/10/01 10:01:53;;;;;;;5.33;1.17;;;17.80;99.90;18.30;100408.00;;;;5012300;28;20191;-71
2022/10/01 10:08:42;;;;;;;0.30;0.30;;;17.70;99.90;18.60;100412.00;;;;5012414;28;20541;-72
2022/10/01 10:12:12;;;;;;;0.30;0.30;;;18.00;99.90;18.40;100416.00;;;;5013516;28;20177;-72
2022/10/01 10:15:25;;;;;;;1.93;1.30;;;17.90;99.90;18.50;100400.00;;;;5028185;28;20703;-71
2022/10/01 10:18:29;;;;;;;1.73;1.07;;;17.90;99.90;18.10;100436.00;;;;5028438;28;20181;-72
2022/10/01 10:34:14;;;;;;;1.80;0.63;;;17.50;99.90;18.30;100462.00;;;;5070549;28;20539;-71
2022/10/01 10:37:30;;;;;;;6.13;2.07;;;17.80;99.90;19.10;100465.00;;;;5050329;28;20175;-72
2022/10/01 10:39:57;;;;;;;0.50;0.50;;;18.40;99.90;20.20;100501.00;;;;5049235;28;20202;-71
2022/10/01 10:43:42;;;;;;;1.47;0.93;;;19.10;99.90;20.00;100512.00;;;;5065736;28;20207;-71
2022/10/01 10:47:17;;;;;;;3.20;1.83;;;19.30;99.90;19.30;100517.00;;;;5034095;28;20391;-72
2022/10/01 10:49:55;;;;;;;5.10;1.97;;;19.10;99.90;18.50;100500.00;;;;5056241;28;20183;-71
2022/10/01 10:52:28;;;;;;;9.57;2.50;;;18.50;99.90;18.80;100516.00;;;;5082428;28;20239;-71
2022/10/01 10:54:57;;;;;;;3.30;1.73;;;18.40;99.90;18.70;100521.00;;;;5066056;28;20684;-71
2022/10/01 10:57:35;;;;;;;6.63;1.77;;;18.40;99.90;18.80;100533.00;;;;5065309;28;20211;-71
2022/10/01 11:00:17;;;;;;;7.67;1.37;;;18.50;99.90;19.20;100532.00;;;;5081891;28;20176;-71
2022/10/01 11:02:52;;;;;;;1.80;0.50;;;18.70;99.90;20.00;100549.00;;;;5065488;28;20189;-71
2022/10/01 11:05:26;;;;;;;0.40;0.40;;;19.10;99.90;20.40;100576.00;;;;5050049;28;20193;-70
2022/10/01 11:08:02;;;;;;;2.70;1.98;;;19.60;99.90;20.40;100570.00;;;;5081878;28;20659;-71
2022/10/01 11:11:42;;;;;;;0.20;0.20;;;19.80;99.90;19.60;100576.00;;;;5048581;28;20239;-71
2022/10/01 11:15:06;;;;;;;0.40;0.40;;;19.30;99.90;19.80;100577.00;;;;4968957;28;20718;-71
2022/10/01 11:17:58;;;;;;;5.60;1.50;;;19.00;99.90;19.00;100570.00;;;;4968924;28;20188;-70
2022/10/01 11:20:50;;;;;;;1.30;1.10;;;18.60;99.90;19.60;100568.00;;;;4968831;28;20285;-70
2022/10/01 11:23:49;;;;;;;2.47;1.60;;;18.90;99.90;19.50;100559.00;;;;5041449;28;20258;-71
2022/10/01 11:26:36;;;;;;;3.20;0.77;;;19.00;99.90;19.20;100579.00;;;;5049950;28;20688;-71
2022/10/01 11:29:29;;;;;;;0.30;0.30;;;18.90;99.90;20.00;100586.00;;;;5081269;28;20174;-71
2022/10/01 11:32:26;;;;;;;0.67;0.40;;;19.20;99.90;19.30;100609.00;;;;5048906;28;20569;-71
2022/10/01 11:35:25;;;;;;;0.80;0.80;;;19.10;99.90;19.80;100599.00;;;;5048286;28;20193;-71
2022/10/01 11:38:28;;;;;;;3.97;1.75;;;19.20;99.90;20.10;100601.00;;;;5046221;28;20182;-71
2022/10/01 11:41:30;;;;;;;0.10;0.10;;;19.20;99.90;20.80;100624.00;;;;5049553;28;20203;-72
2022/10/01 11:44:28;;;;;;;7.18;1.42;;;19.90;99.90;20.30;100620.00;;;;5037622;28;20261;-71
2022/10/01 11:47:19;;;;;;;0.20;0.20;;;19.80;99.90;20.00;100582.00;;;;5036131;28;20193;-71
2022/10/01 11:50:28;;;;;;;7.75;1.33;;;19.40;99.90;20.60;100647.00;;;;5035981;28;20195;-71
2022/10/01 11:53:31;;;;;;;0.65;0.65;;;19.90;99.90;21.20;100656.00;;;;5025442;28;20257;-71
2022/10/01 12:00:23;;;;;;;4.10;0.95;;;20.50;99.90;19.60;100649.00;;;;5035674;28;20611;-71
2022/10/01 12:03:01;;;;;;;1.95;1.17;;;19.90;99.90;19.20;100646.00;;;;4992160;28;20204;-68
2022/10/01 12:05:41;;;;;;;2.65;0.98;;;19.20;99.90;19.30;100639.00;;;;4977333;28;20200;-67